KOWD/OWD METAR and TAF weather

Enter ICAO airport designator
Station Type Date Time Source
KOWD METAR 2020/03/29 10:53 UTC NOAA

KOWD 291053Z 10007KT 2 1/2SM BR OVC009 07/06 A3016 RMK AO2 CIG 006V011 SLP214 T00720056


Station Type Date Time Source
KOWD Decoded METAR 2020/03/29 10:53 UTC NOAA

NORWOOD MEMORIAL AIRPORT, MA, United States (KOWD) 42-11N 71-10W 19M
Mar 29, 2020 - 06:53 AM EDT / 2020.03.29 1053 UTC
Wind: from the E (100 degrees) at 8 MPH (7 KT):0
Visibility: 2 1/2 mile(s):0
Sky conditions: overcast
Weather: mist
Temperature: 45.0 F (7.2 C)
Dew Point: 42.1 F (5.6 C)
Relative Humidity: 89%
Pressure (altimeter): 30.16 in. Hg (1021 hPa)
ob: KOWD 291053Z 10007KT 2 1/2SM BR OVC009 07/06 A3016 RMK AO2 CIG 006V011 SLP214 T00720056
cycle: 11

Station Type Date Time Source
KOWD TAF UTC NOAA

Error!

Example: see airport list